createdAt,value
2022-11-07T00:01:18.895Z,4.87
2022-11-07T00:03:46.211Z,4.90
2022-11-07T00:06:13.392Z,5.43
2022-11-07T00:08:40.223Z,4.77
2022-11-07T00:11:07.404Z,4.70
2022-11-07T00:13:34.326Z,5.60
2022-11-07T00:16:03.490Z,4.80
2022-11-07T00:18:30.547Z,5.23
2022-11-07T00:21:08.127Z,4.50
2022-11-07T00:23:35.369Z,5.30
2022-11-07T00:26:07.611Z,5.73
2022-11-07T00:28:36.302Z,9.17
2022-11-07T00:31:03.860Z,4.70
2022-11-07T00:33:30.727Z,5.83
2022-11-07T00:35:57.615Z,4.63
2022-11-07T00:38:24.487Z,4.27
2022-11-07T00:40:56.255Z,4.63
2022-11-07T00:43:23.596Z,4.47
2022-11-07T00:45:50.470Z,5.20
2022-11-07T00:48:17.327Z,5.07
2022-11-07T00:50:44.224Z,4.60
2022-11-07T00:53:11.143Z,4.70
2022-11-07T00:55:38.159Z,5.00
2022-11-07T00:58:07.522Z,4.17
2022-11-07T01:00:37.248Z,3.40
2022-11-07T01:03:23.379Z,3.40
2022-11-07T01:06:01.570Z,3.33
2022-11-07T01:08:29.761Z,3.40
2022-11-07T01:10:57.353Z,3.10
2022-11-07T01:13:24.868Z,4.60
2022-11-07T01:15:51.827Z,2.93
2022-11-07T01:18:18.913Z,3.20
2022-11-07T01:20:45.720Z,2.60
2022-11-07T01:23:12.893Z,3.00
2022-11-07T01:25:40.303Z,2.20
2022-11-07T01:28:08.306Z,2.33
2022-11-07T01:30:39.150Z,2.80
2022-11-07T01:33:06.080Z,2.67
2022-11-07T01:35:33.658Z,2.27
2022-11-07T01:38:00.521Z,2.37
2022-11-07T01:40:27.884Z,3.27
2022-11-07T01:42:54.799Z,2.83
2022-11-07T01:45:31.036Z,2.57
2022-11-07T01:48:01.973Z,2.50
2022-11-07T01:50:30.614Z,2.90
2022-11-07T01:52:58.101Z,3.63
2022-11-07T01:55:32.104Z,3.27
2022-11-07T01:58:06.956Z,3.67
2022-11-07T02:00:35.614Z,2.00
2022-11-07T02:03:09.720Z,3.80
2022-11-07T02:05:53.184Z,3.20
2022-11-07T02:08:21.978Z,1.90
2022-11-07T02:10:49.043Z,1.97
2022-11-07T02:13:25.399Z,2.33
2022-11-07T02:15:52.703Z,2.20
2022-11-07T02:18:19.962Z,1.47
2022-11-07T02:20:47.190Z,1.97
2022-11-07T02:23:26.643Z,1.90
2022-11-07T02:25:54.576Z,1.70
2022-11-07T02:28:23.703Z,1.67
2022-11-07T02:30:50.653Z,1.67
2022-11-07T02:33:19.812Z,2.33
2022-11-07T02:35:49.319Z,2.50
2022-11-07T02:38:34.925Z,2.57
2022-11-07T02:41:07.065Z,2.93
2022-11-07T02:43:37.119Z,3.00
2022-11-07T02:46:07.361Z,1.80
2022-11-07T02:48:45.855Z,2.53
2022-11-07T02:51:13.219Z,2.40
2022-11-07T02:53:40.072Z,3.23
2022-11-07T02:56:07.455Z,2.00
2022-11-07T02:58:34.650Z,4.33
2022-11-07T03:01:03.091Z,2.00
2022-11-07T03:03:30.853Z,3.17
2022-11-07T03:05:57.814Z,2.00
2022-11-07T03:08:24.692Z,4.13
2022-11-07T03:10:51.623Z,3.73
2022-11-07T03:13:18.462Z,1.80
2022-11-07T03:15:45.590Z,2.27
2022-11-07T03:18:12.473Z,1.67
2022-11-07T03:20:39.298Z,1.80
2022-11-07T03:23:06.201Z,1.33
2022-11-07T03:25:33.097Z,1.97
2022-11-07T03:27:59.963Z,1.73
2022-11-07T03:30:26.941Z,1.90
2022-11-07T03:32:54.461Z,1.67
2022-11-07T03:35:21.940Z,3.40
2022-11-07T03:37:49.971Z,1.80
2022-11-07T03:40:17.623Z,1.63
2022-11-07T03:42:45.609Z,3.63
2022-11-07T03:45:14.497Z,2.10
2022-11-07T03:47:43.007Z,1.90
2022-11-07T03:50:12.483Z,1.90
2022-11-07T03:52:39.349Z,1.77
2022-11-07T03:55:06.800Z,2.10
2022-11-07T03:57:33.662Z,1.87
2022-11-07T04:00:00.511Z,3.03
2022-11-07T04:02:27.684Z,2.83
2022-11-07T04:04:54.670Z,3.23
2022-11-07T04:07:21.520Z,4.93
2022-11-07T04:09:48.315Z,2.20
2022-11-07T04:12:33.645Z,2.13
2022-11-07T04:15:18.961Z,2.60
2022-11-07T04:17:45.947Z,2.60
2022-11-07T04:20:12.765Z,3.30
2022-11-07T04:22:39.692Z,2.87
2022-11-07T04:25:07.216Z,3.73
2022-11-07T04:27:42.879Z,2.63
2022-11-07T04:30:30.006Z,2.70
2022-11-07T04:32:59.446Z,5.00
2022-11-07T04:35:29.084Z,2.10
2022-11-07T04:37:55.974Z,3.50
2022-11-07T04:40:22.893Z,2.77
2022-11-07T04:42:49.844Z,2.90
2022-11-07T04:45:17.667Z,2.23
2022-11-07T04:47:44.955Z,2.73
2022-11-07T04:50:14.145Z,2.97
2022-11-07T04:52:41.286Z,2.30
2022-11-07T04:55:10.411Z,2.63
2022-11-07T04:57:37.279Z,2.40
2022-11-07T05:00:04.858Z,2.00
2022-11-07T05:02:31.850Z,2.97
2022-11-07T05:04:58.736Z,2.97
2022-11-07T05:07:25.677Z,1.60
2022-11-07T05:09:52.605Z,2.13
2022-11-07T05:12:19.468Z,3.80
2022-11-07T05:14:46.309Z,1.90
2022-11-07T05:17:17.111Z,2.63
2022-11-07T05:19:44.009Z,2.20
2022-11-07T05:22:29.833Z,2.50
2022-11-07T05:24:56.681Z,1.70
2022-11-07T05:27:24.281Z,2.20
2022-11-07T05:29:52.222Z,3.67
2022-11-07T05:32:19.409Z,3.23
2022-11-07T05:34:46.319Z,2.00
2022-11-07T05:37:13.648Z,3.33
2022-11-07T05:39:40.622Z,3.40
2022-11-07T05:42:07.654Z,3.93
2022-11-07T05:44:34.560Z,6.00
2022-11-07T05:47:01.534Z,3.30
2022-11-07T05:49:28.699Z,4.83
2022-11-07T05:51:55.540Z,6.87
2022-11-07T05:54:23.510Z,4.80
2022-11-07T05:56:50.509Z,5.03
2022-11-07T05:59:17.392Z,4.80
2022-11-07T06:01:47.656Z,4.60
2022-11-07T06:04:16.992Z,5.13
2022-11-07T06:06:43.952Z,4.87
2022-11-07T06:09:10.811Z,5.93
2022-11-07T06:11:37.953Z,4.90
2022-11-07T06:14:04.836Z,5.20
2022-11-07T06:16:31.755Z,4.93
2022-11-07T06:18:58.598Z,3.83
2022-11-07T06:21:25.472Z,2.57
2022-11-07T06:23:52.346Z,3.43
2022-11-07T06:26:19.191Z,2.63
2022-11-07T06:28:46.042Z,2.03
2022-11-07T06:31:14.529Z,2.83
2022-11-07T06:33:41.408Z,4.17
2022-11-07T06:36:11.101Z,4.53
2022-11-07T06:38:39.396Z,2.63
2022-11-07T06:41:15.040Z,2.97
2022-11-07T06:43:42.370Z,7.27
2022-11-07T06:46:13.184Z,7.00
2022-11-07T06:48:40.145Z,4.13
2022-11-07T06:51:07.839Z,5.03
2022-11-07T06:53:34.766Z,2.93
2022-11-07T06:56:03.521Z,2.43
2022-11-07T06:58:30.506Z,5.73
2022-11-07T07:01:05.686Z,2.50
2022-11-07T07:03:32.727Z,3.33
2022-11-07T07:06:05.142Z,4.90
2022-11-07T07:08:32.619Z,3.83
2022-11-07T07:11:04.416Z,6.57
2022-11-07T07:13:31.424Z,3.57
2022-11-07T07:15:58.757Z,4.93
2022-11-07T07:18:26.869Z,2.83
2022-11-07T07:21:02.139Z,3.87
2022-11-07T07:23:29.044Z,2.77
2022-11-07T07:25:55.901Z,4.10
2022-11-07T07:28:22.774Z,2.80
2022-11-07T07:30:52.135Z,2.57
2022-11-07T07:33:20.156Z,3.87
2022-11-07T07:35:47.037Z,4.37
2022-11-07T07:38:13.967Z,3.73
2022-11-07T07:40:40.785Z,4.37
2022-11-07T07:43:08.103Z,4.20
2022-11-07T07:45:34.967Z,3.03
2022-11-07T07:48:02.831Z,2.10
2022-11-07T07:50:30.026Z,5.77
2022-11-07T07:53:01.596Z,3.87
2022-11-07T07:55:31.952Z,3.80
2022-11-07T07:57:58.848Z,3.37
2022-11-07T08:00:25.692Z,3.97
2022-11-07T08:03:00.906Z,2.20
2022-11-07T08:05:27.861Z,4.60
2022-11-07T08:07:54.985Z,4.53
2022-11-07T08:13:08.645Z,4.33
2022-11-07T08:15:35.505Z,4.57
2022-11-07T08:18:03.549Z,3.70
2022-11-07T08:20:30.458Z,2.60
2022-11-07T08:23:02.339Z,3.37
2022-11-07T08:25:29.401Z,2.93
2022-11-07T08:27:56.336Z,3.23
2022-11-07T08:30:23.166Z,3.87
2022-11-07T08:32:50.047Z,3.50
2022-11-07T08:35:16.921Z,3.47
2022-11-07T08:37:43.798Z,4.13
2022-11-07T08:40:11.335Z,3.00
2022-11-07T08:42:38.226Z,3.23
2022-11-07T08:45:05.583Z,3.37
2022-11-07T08:47:32.437Z,3.00
2022-11-07T08:49:59.279Z,2.60
2022-11-07T08:52:26.153Z,4.33
2022-11-07T08:54:52.981Z,2.10
2022-11-07T08:57:19.858Z,3.23
2022-11-07T08:59:46.722Z,3.97
2022-11-07T09:05:00.622Z,4.47
2022-11-07T09:07:27.524Z,2.67
2022-11-07T09:09:54.474Z,4.87
2022-11-07T09:12:21.333Z,3.97
2022-11-07T09:14:48.229Z,3.27
2022-11-07T09:17:15.084Z,2.83
2022-11-07T09:19:41.984Z,2.30
2022-11-07T09:22:08.899Z,4.13
2022-11-07T09:24:35.758Z,2.80
2022-11-07T09:27:02.663Z,3.07
2022-11-07T09:29:29.539Z,3.87
2022-11-07T09:31:56.452Z,5.73
2022-11-07T09:34:23.292Z,4.17
2022-11-07T09:36:50.184Z,3.17
2022-11-07T09:39:17.082Z,4.00
2022-11-07T09:41:51.574Z,5.20
2022-11-07T09:44:37.653Z,3.97
2022-11-07T09:47:23.242Z,4.93
2022-11-07T09:49:52.646Z,5.87
2022-11-07T09:52:22.462Z,2.67
2022-11-07T09:54:55.872Z,3.50
2022-11-07T09:57:23.886Z,3.37
2022-11-07T09:59:57.511Z,3.80
2022-11-07T10:02:30.892Z,4.90
2022-11-07T10:05:01.030Z,3.90
2022-11-07T10:07:37.006Z,6.13
2022-11-07T10:10:14.825Z,7.87
2022-11-07T10:13:14.925Z,4.90
2022-11-07T10:15:53.825Z,4.27
2022-11-07T10:18:26.493Z,4.13
2022-11-07T10:21:35.979Z,4.47
2022-11-07T10:23:57.827Z,6.47
2022-11-07T10:26:27.179Z,3.60
2022-11-07T10:29:10.395Z,4.23
2022-11-07T10:31:42.507Z,5.20
2022-11-07T10:34:22.049Z,3.60
2022-11-07T10:36:48.993Z,3.73
2022-11-07T10:39:18.983Z,3.43
2022-11-07T10:42:10.892Z,4.93
2022-11-07T10:44:42.058Z,3.00
2022-11-07T10:47:22.122Z,7.17
2022-11-07T10:49:56.369Z,9.87
2022-11-07T10:52:23.325Z,7.13
2022-11-07T10:54:50.288Z,5.87
2022-11-07T10:57:20.302Z,8.83
2022-11-07T10:59:53.163Z,7.13
2022-11-07T11:02:21.808Z,9.23
2022-11-07T11:04:51.746Z,4.13
2022-11-07T11:07:21.813Z,6.23
2022-11-07T11:09:58.536Z,6.43
2022-11-07T11:12:30.615Z,10.37
2022-11-07T11:15:31.232Z,7.37
2022-11-07T11:18:06.782Z,9.37
2022-11-07T11:20:58.614Z,8.97
2022-11-07T11:23:29.158Z,7.13
2022-11-07T11:26:06.985Z,5.10
2022-11-07T11:28:48.265Z,8.57
2022-11-07T11:31:18.568Z,18.47
2022-11-07T11:33:49.278Z,10.33
2022-11-07T11:36:27.803Z,12.70
2022-11-07T11:38:55.033Z,12.93
2022-11-07T11:41:25.566Z,10.03
2022-11-07T11:43:58.943Z,27.33
2022-11-07T11:46:44.666Z,18.13
2022-11-07T11:49:46.310Z,12.50
2022-11-07T11:52:17.389Z,15.60
2022-11-07T11:54:46.077Z,7.70
2022-11-07T11:57:37.900Z,8.93
2022-11-07T12:00:10.110Z,8.20
2022-11-07T12:03:02.017Z,8.17
2022-11-07T12:05:57.655Z,7.07
2022-11-07T12:08:45.766Z,8.50
2022-11-07T12:11:52.130Z,8.80
2022-11-07T12:14:41.638Z,6.60
2022-11-07T12:17:15.460Z,5.47
2022-11-07T12:20:24.486Z,4.30
2022-11-07T12:23:18.870Z,5.07
2022-11-07T12:26:03.698Z,5.00
2022-11-07T12:28:52.879Z,3.47
2022-11-07T12:31:52.654Z,3.20
2022-11-07T12:35:03.422Z,2.83
2022-11-07T12:37:52.502Z,3.67
2022-11-07T12:40:31.451Z,2.30
2022-11-07T12:43:22.503Z,2.97
2022-11-07T12:46:01.063Z,3.03
2022-11-07T12:49:11.048Z,3.40
2022-11-07T12:51:53.057Z,3.30
2022-11-07T12:54:22.664Z,1.83
2022-11-07T12:56:51.052Z,4.97
2022-11-07T12:59:30.948Z,3.13
2022-11-07T13:02:19.041Z,4.27
2022-11-07T13:04:51.731Z,4.83
2022-11-07T13:07:39.892Z,6.20
2022-11-07T13:10:53.451Z,2.90
2022-11-07T13:13:39.116Z,5.83
2022-11-07T13:16:21.055Z,3.37
2022-11-07T13:18:47.921Z,3.50
2022-11-07T13:21:14.734Z,2.93
2022-11-07T13:23:41.733Z,2.50
2022-11-07T13:26:32.447Z,2.67
2022-11-07T13:29:00.922Z,3.30
2022-11-07T13:31:32.236Z,2.97
2022-11-07T13:34:39.243Z,5.67
2022-11-07T13:37:06.171Z,4.10
2022-11-07T13:39:33.482Z,3.17
2022-11-07T13:42:01.249Z,4.27
2022-11-07T13:44:37.345Z,5.43
2022-11-07T13:47:11.752Z,3.00
2022-11-07T13:49:45.690Z,3.57
2022-11-07T13:52:41.572Z,3.93
2022-11-07T13:55:19.939Z,5.57
2022-11-07T13:57:56.337Z,3.73
2022-11-07T14:00:23.559Z,5.33
2022-11-07T14:02:53.812Z,4.97
2022-11-07T14:05:24.008Z,6.53
2022-11-07T14:08:25.632Z,4.90
2022-11-07T14:10:53.232Z,4.83
2022-11-07T14:13:34.660Z,4.20
2022-11-07T14:16:18.916Z,5.50
2022-11-07T14:19:17.555Z,4.40
2022-11-07T14:21:46.642Z,5.50
2022-11-07T14:24:21.305Z,4.70
2022-11-07T14:26:58.532Z,8.90
2022-11-07T14:29:25.405Z,3.13
2022-11-07T14:31:52.207Z,3.63
2022-11-07T14:34:21.588Z,3.63
2022-11-07T14:36:52.775Z,4.87
2022-11-07T14:39:22.575Z,4.17
2022-11-07T14:41:50.889Z,2.63
2022-11-07T14:44:36.288Z,5.43
2022-11-07T14:47:28.844Z,3.03
2022-11-07T14:49:56.700Z,3.43
2022-11-07T14:52:34.569Z,2.60
2022-11-07T14:55:20.935Z,3.37
2022-11-07T14:57:48.201Z,4.37
2022-11-07T15:00:17.860Z,3.97
2022-11-07T15:02:48.044Z,4.97
2022-11-07T15:05:24.497Z,4.17
2022-11-07T15:07:51.439Z,4.20
2022-11-07T15:10:34.487Z,2.63
2022-11-07T15:13:04.299Z,2.90
2022-11-07T15:15:35.967Z,2.33
2022-11-07T15:18:07.062Z,3.47
2022-11-07T15:20:37.171Z,6.20
2022-11-07T15:23:24.276Z,3.07
2022-11-07T15:25:58.339Z,3.13
2022-11-07T15:28:28.181Z,3.50
2022-11-07T15:30:59.932Z,3.67
2022-11-07T15:33:30.995Z,4.53
2022-11-07T15:36:00.168Z,3.40
2022-11-07T15:38:28.674Z,4.20
2022-11-07T15:40:55.615Z,4.33
2022-11-07T15:43:22.757Z,4.50
2022-11-07T15:45:51.568Z,2.73
2022-11-07T15:48:21.460Z,4.50
2022-11-07T15:50:49.743Z,4.20
2022-11-07T15:53:24.798Z,4.30
2022-11-07T15:55:59.806Z,3.33
2022-11-07T15:58:29.162Z,3.03
2022-11-07T16:00:58.539Z,4.60
2022-11-07T16:03:27.341Z,4.60
2022-11-07T16:05:58.041Z,6.77
2022-11-07T16:08:25.584Z,8.20
2022-11-07T16:10:55.632Z,6.87
2022-11-07T16:13:22.649Z,10.60
2022-11-07T16:15:53.351Z,6.90
2022-11-07T16:18:21.981Z,5.03
2022-11-07T16:20:50.397Z,6.53
2022-11-07T16:23:18.298Z,6.87
2022-11-07T16:25:48.291Z,5.37
2022-11-07T16:28:24.184Z,4.50
2022-11-07T16:30:51.881Z,5.73
2022-11-07T16:33:19.252Z,5.50
2022-11-07T16:35:49.326Z,9.63
2022-11-07T16:38:18.639Z,7.20
2022-11-07T16:40:46.461Z,6.53
2022-11-07T16:43:13.536Z,8.43
2022-11-07T16:45:50.890Z,4.27
2022-11-07T16:48:26.931Z,9.33
2022-11-07T16:50:55.202Z,10.70
2022-11-07T16:53:22.723Z,10.43
2022-11-07T16:55:53.937Z,7.97
2022-11-07T16:58:27.940Z,7.40
2022-11-07T17:00:56.634Z,6.27
2022-11-07T17:03:24.570Z,9.03
2022-11-07T17:05:56.185Z,13.27
2022-11-07T17:08:26.463Z,15.73
2022-11-07T17:10:53.655Z,9.60
2022-11-07T17:13:22.093Z,7.17
2022-11-07T17:15:49.444Z,7.87
2022-11-07T17:18:21.708Z,8.10
2022-11-07T17:20:51.690Z,9.77
2022-11-07T17:23:23.927Z,10.57
2022-11-07T17:25:54.610Z,11.10
2022-11-07T17:28:22.649Z,7.97
2022-11-07T17:30:49.535Z,9.17
2022-11-07T17:33:16.460Z,6.50
2022-11-07T17:35:43.523Z,6.17
2022-11-07T17:38:16.705Z,4.87
2022-11-07T17:40:44.165Z,5.37
2022-11-07T17:43:10.913Z,5.40
2022-11-07T17:45:37.860Z,6.70
2022-11-07T17:48:05.099Z,6.87
2022-11-07T17:50:32.025Z,4.77
2022-11-07T17:52:58.829Z,6.33
2022-11-07T17:55:25.848Z,5.67
2022-11-07T17:57:52.777Z,21.20
2022-11-07T18:00:22.424Z,11.10
2022-11-07T18:02:50.969Z,8.50
2022-11-07T18:05:20.271Z,7.67
2022-11-07T18:07:47.278Z,10.10
2022-11-07T18:10:15.509Z,6.30
2022-11-07T18:12:42.740Z,5.37
2022-11-07T18:15:12.884Z,5.50
2022-11-07T18:17:41.283Z,4.43
2022-11-07T18:20:09.686Z,5.30
2022-11-07T18:22:37.288Z,4.10
2022-11-07T18:25:06.609Z,6.63
2022-11-07T18:27:33.455Z,3.97
2022-11-07T18:30:00.467Z,6.13
2022-11-07T18:32:34.667Z,6.03
2022-11-07T18:35:04.441Z,6.00
2022-11-07T18:37:31.593Z,4.13
2022-11-07T18:39:58.444Z,4.50
2022-11-07T18:42:25.285Z,4.67
2022-11-07T18:44:52.248Z,4.53
2022-11-07T18:47:19.185Z,4.67
2022-11-07T18:49:46.024Z,5.83
2022-11-07T18:52:13.482Z,3.67
2022-11-07T18:54:40.456Z,5.43
2022-11-07T18:57:07.361Z,4.03
2022-11-07T18:59:34.304Z,4.40
2022-11-07T19:02:01.250Z,3.77
2022-11-07T19:04:28.213Z,5.57
2022-11-07T19:06:57.926Z,3.93
2022-11-07T19:09:28.361Z,4.53
2022-11-07T19:11:56.151Z,5.43
2022-11-07T19:14:22.957Z,3.57
2022-11-07T19:16:50.234Z,4.53
2022-11-07T19:19:17.054Z,6.17
2022-11-07T19:21:44.338Z,4.83
2022-11-07T19:24:12.825Z,3.30
2022-11-07T19:26:39.888Z,5.13
2022-11-07T19:29:09.305Z,5.13
2022-11-07T19:31:37.236Z,2.53
2022-11-07T19:34:05.007Z,4.47
2022-11-07T19:36:32.227Z,4.07
2022-11-07T19:38:59.078Z,4.10
2022-11-07T19:41:26.051Z,3.73
2022-11-07T19:43:52.921Z,4.17
2022-11-07T19:46:22.360Z,4.23
2022-11-07T19:48:50.181Z,5.50
2022-11-07T19:51:22.151Z,4.23
2022-11-07T19:53:57.116Z,3.10
2022-11-07T19:56:25.822Z,3.60
2022-11-07T19:58:52.897Z,5.03
2022-11-07T20:01:23.425Z,4.20
2022-11-07T20:03:52.417Z,3.90
2022-11-07T20:06:22.941Z,3.50
2022-11-07T20:08:50.123Z,4.27
2022-11-07T20:11:19.545Z,3.47
2022-11-07T20:13:46.539Z,4.03
2022-11-07T20:16:13.399Z,3.90
2022-11-07T20:18:40.835Z,4.70
2022-11-07T20:21:12.997Z,4.23
2022-11-07T20:23:44.085Z,2.97
2022-11-07T20:26:17.088Z,3.53
2022-11-07T20:28:45.413Z,4.00
2022-11-07T20:31:17.633Z,4.63
2022-11-07T20:33:44.617Z,3.47
2022-11-07T20:36:13.547Z,3.73
2022-11-07T20:38:41.343Z,4.93
2022-11-07T20:41:08.246Z,4.03
2022-11-07T20:43:35.452Z,2.80
2022-11-07T20:46:05.422Z,4.53
2022-11-07T20:48:32.384Z,4.63
2022-11-07T20:51:05.933Z,3.67
2022-11-07T20:53:32.689Z,4.77
2022-11-07T20:56:05.277Z,4.40
2022-11-07T20:58:33.616Z,4.93
2022-11-07T21:01:00.687Z,3.90
2022-11-07T21:03:27.887Z,2.93
2022-11-07T21:05:55.177Z,2.50
2022-11-07T21:08:22.123Z,3.63
2022-11-07T21:10:51.154Z,5.13
2022-11-07T21:13:18.880Z,4.87
2022-11-07T21:15:49.724Z,4.10
2022-11-07T21:18:16.699Z,6.70
2022-11-07T21:20:43.506Z,3.20
2022-11-07T21:23:11.333Z,3.67
2022-11-07T21:25:43.103Z,6.37
2022-11-07T21:28:11.159Z,3.50
2022-11-07T21:30:39.829Z,3.47
2022-11-07T21:33:06.672Z,2.97
2022-11-07T21:35:33.858Z,4.23
2022-11-07T21:38:00.697Z,3.07
2022-11-07T21:40:27.578Z,8.63
2022-11-07T21:42:55.019Z,2.63
2022-11-07T21:45:22.539Z,2.57
2022-11-07T21:47:49.388Z,3.27
2022-11-07T21:50:43.112Z,4.53
2022-11-07T21:53:05.516Z,4.07
2022-11-07T21:55:32.360Z,3.20
2022-11-07T21:57:59.274Z,2.30
2022-11-07T22:00:26.117Z,3.17
2022-11-07T22:02:52.903Z,2.30
2022-11-07T22:05:19.746Z,4.47
2022-11-07T22:07:46.566Z,2.80
2022-11-07T22:10:13.446Z,3.57
2022-11-07T22:12:40.274Z,1.70
2022-11-07T22:15:07.534Z,3.00
2022-11-07T22:17:34.460Z,4.10
2022-11-07T22:20:01.351Z,4.03
2022-11-07T22:22:28.138Z,3.77
2022-11-07T22:24:54.938Z,2.13
2022-11-07T22:27:23.333Z,1.83
2022-11-07T22:29:50.389Z,2.20
2022-11-07T22:32:17.251Z,1.70
2022-11-07T22:34:44.691Z,2.30
2022-11-07T22:37:11.500Z,2.87
2022-11-07T22:39:38.327Z,3.00
2022-11-07T22:42:05.352Z,3.20
2022-11-07T22:44:32.214Z,3.67
2022-11-07T22:46:59.071Z,4.30
2022-11-07T22:49:25.895Z,2.30
2022-11-07T22:51:52.730Z,1.63
2022-11-07T22:54:19.556Z,4.07
2022-11-07T22:56:46.373Z,3.57
2022-11-07T22:59:13.283Z,3.67
2022-11-07T23:01:42.417Z,1.90
2022-11-07T23:04:15.226Z,4.70
2022-11-07T23:06:42.309Z,1.87
2022-11-07T23:09:14.497Z,2.37
2022-11-07T23:11:46.489Z,2.47
2022-11-07T23:14:15.240Z,5.37
2022-11-07T23:16:51.149Z,2.87
2022-11-07T23:19:20.844Z,3.30
2022-11-07T23:21:48.934Z,3.07
2022-11-07T23:24:15.854Z,2.90
2022-11-07T23:26:42.848Z,2.93
2022-11-07T23:29:19.503Z,3.30
2022-11-07T23:31:48.223Z,2.70
2022-11-07T23:34:15.322Z,3.23
2022-11-07T23:36:44.522Z,1.63
2022-11-07T23:39:17.879Z,1.43
2022-11-07T23:41:45.096Z,3.13
2022-11-07T23:44:12.227Z,1.87
2022-11-07T23:47:14.361Z,2.30
2022-11-07T23:49:59.649Z,3.30
2022-11-07T23:52:26.382Z,4.87
2022-11-07T23:55:11.749Z,2.87
2022-11-07T23:57:57.005Z,2.80
